Mobridge, SD (57601)

9:10 PM CDT on September 03, 2015 (GMT -0500)
NCSD Skywarn | | Change Station
CLOSE
Current Station
Personal Weather Station
Location: Mobridge, SD
Elevation: 1677 ft
Nearby Weather Stations

Elev 1677 ft 45.54 °N, 100.44 °W | Updated 3 seconds ago

Clear
Clear
80.7 °F
Feels Like 83 °F
N
3.8
Wind Variable Wind from South
Gusts 9.8 mph

Today
High -- | Low -- °F
--% Chance of Precip.
Yesterday
High -- | Low -- °F
Precip. -- in
7:05 AM 8:16 PM
Waning Gibbous, 64% visible
Pressure 29.66 in
Visibility 10.0 miles
Clouds Clear
Heat Index 83 °F
Dew Point 66 °F
Humidity 61%
Rainfall 0.00 in
Snow Depth Not available.
UV 0.0 out of 12
Pollen 10.40 out of 12
Air Quality Not available.
Flu Activity Not available.
METAR KMBG 040152Z AUTO 12010KT 10SM CLR 27/21 A2970 RMK AO2 LTG DSNT NW SLP044 T02720206
Pressure 29.66 in
Visibility 10.0 miles
Clouds Clear
Heat Index 83 °F
Dew Point 66 °F
Humidity 61%
Rainfall 0.00 in
Snow Depth Not available.
UV 0.0 out of 12
Pollen 10.40 out of 12
Air Quality Not available.
Flu Activity Not available.
METAR KMBG 040152Z AUTO 12010KT 10SM CLR 27/21 A2970 RMK AO2 LTG DSNT NW SLP044 T02720206

10-Day Weather Forecast

×

Almanac

Astronomy

Sep. 03, 2015 Rise Set
Actual Time
Civil Twilight
Nautical Twilight
Astronomical Twilight
Moon
Length of Visible Light
Length of Day
Tomorrow will be .
, % of the Moon is Illuminated

Today's Extremes

State Highs State Lows

Community

WunderPhotos

Upload Photos

1,852,095 photos uploaded!

WunderBlogs® & News

Nearby

Air Quality

  Air Quality AQ Index Pollutant
Not available.

Snow Depth

Station Depth Elevation

Earthquake Activity

City Distance Mag. Time & Date
Minimum magnitude displayed is 2.5.

Coastal Water Temperatures

Place Temperature

Stations

Nearby Weather Stations

Station Location Temp. Windchill Dew Point Humidity Wind Precip. Elev Updated Type